sensor_id;sensor_type;location;lat;lon;timestamp;pressure;altitude;pressure_sealevel;temperature;humidity
41467;BME280;72625;53.700;19.958;2024-03-17T00:03:56;100069.36;;;4.69;84.75
41467;BME280;72625;53.700;19.958;2024-03-17T00:09:22;100069.46;;;4.65;84.87
41467;BME280;72625;53.700;19.958;2024-03-17T00:14:30;100062.09;;;4.61;84.58
41467;BME280;72625;53.700;19.958;2024-03-17T00:25:07;100067.20;;;4.40;85.15
41467;BME280;72625;53.700;19.958;2024-03-17T00:30:23;100061.30;;;4.35;85.25
41467;BME280;72625;53.700;19.958;2024-03-17T00:35:37;100057.92;;;4.30;85.15
41467;BME280;72625;53.700;19.958;2024-03-17T00:40:52;100055.47;;;4.24;85.19
41467;BME280;72625;53.700;19.958;2024-03-17T00:46:16;100057.42;;;4.21;85.35
41467;BME280;72625;53.700;19.958;2024-03-17T00:51:30;100058.33;;;4.18;85.36
41467;BME280;72625;53.700;19.958;2024-03-17T01:02:07;100052.98;;;4.21;85.14
41467;BME280;72625;53.700;19.958;2024-03-17T01:30:37;100043.84;;;4.48;83.85
41467;BME280;72625;53.700;19.958;2024-03-17T01:41:18;100036.92;;;4.54;83.15
41467;BME280;72625;53.700;19.958;2024-03-17T01:47:01;100034.93;;;4.56;83.07
41467;BME280;72625;53.700;19.958;2024-03-17T01:52:29;100028.50;;;4.58;82.95
41467;BME280;72625;53.700;19.958;2024-03-17T01:58:17;100025.71;;;4.60;82.94
41467;BME280;72625;53.700;19.958;2024-03-17T02:03:19;100023.27;;;4.61;82.44
41467;BME280;72625;53.700;19.958;2024-03-17T02:09:07;100022.03;;;4.64;82.07
41467;BME280;72625;53.700;19.958;2024-03-17T02:14:04;100021.25;;;4.67;81.94
41467;BME280;72625;53.700;19.958;2024-03-17T02:19:12;100022.38;;;4.65;81.86
41467;BME280;72625;53.700;19.958;2024-03-17T02:24:14;100017.86;;;4.69;81.78
41467;BME280;72625;53.700;19.958;2024-03-17T02:29:40;100017.83;;;4.70;81.61
41467;BME280;72625;53.700;19.958;2024-03-17T02:35:05;100017.59;;;4.73;81.91
41467;BME280;72625;53.700;19.958;2024-03-17T02:40:09;100017.98;;;4.76;81.10
41467;BME280;72625;53.700;19.958;2024-03-17T02:46:06;100014.21;;;4.77;80.99
41467;BME280;72625;53.700;19.958;2024-03-17T02:57:30;100005.65;;;4.81;80.30
41467;BME280;72625;53.700;19.958;2024-03-17T03:08:07;100008.19;;;4.89;79.89
41467;BME280;72625;53.700;19.958;2024-03-17T03:13:23;100012.16;;;4.89;79.28
41467;BME280;72625;53.700;19.958;2024-03-17T03:18:36;100006.77;;;4.92;80.05
41467;BME280;72625;53.700;19.958;2024-03-17T03:23:49;100004.36;;;4.93;79.42
41467;BME280;72625;53.700;19.958;2024-03-17T03:46:25;99999.18;;;4.99;79.27
41467;BME280;72625;53.700;19.958;2024-03-17T03:52:08;99994.96;;;4.97;78.75
41467;BME280;72625;53.700;19.958;2024-03-17T03:57:49;99992.60;;;4.95;79.15
41467;BME280;72625;53.700;19.958;2024-03-17T04:19:54;99999.20;;;4.98;79.22
41467;BME280;72625;53.700;19.958;2024-03-17T04:42:32;100022.99;;;5.12;78.62
41467;BME280;72625;53.700;19.958;2024-03-17T04:47:57;100029.20;;;5.17;78.68
41467;BME280;72625;53.700;19.958;2024-03-17T04:53:21;100033.91;;;5.12;79.78
41467;BME280;72625;53.700;19.958;2024-03-17T05:04:41;100012.32;;;4.86;81.53
41467;BME280;72625;53.700;19.958;2024-03-17T05:10:08;100018.21;;;4.87;81.02
41467;BME280;72625;53.700;19.958;2024-03-17T05:21:26;100051.30;;;4.80;81.50
41467;BME280;72625;53.700;19.958;2024-03-17T05:26:48;100043.70;;;4.63;82.03
41467;BME280;72625;53.700;19.958;2024-03-17T05:31:56;100039.55;;;4.61;81.87
41467;BME280;72625;53.700;19.958;2024-03-17T05:37:02;100042.40;;;4.65;81.68
41467;BME280;72625;53.700;19.958;2024-03-17T05:42:38;100044.42;;;4.69;81.69
41467;BME280;72625;53.700;19.958;2024-03-17T05:47:43;100047.98;;;4.76;81.57
41467;BME280;72625;53.700;19.958;2024-03-17T05:53:06;100051.31;;;4.86;81.64
41467;BME280;72625;53.700;19.958;2024-03-17T05:58:21;100057.90;;;4.96;81.19
41467;BME280;72625;53.700;19.958;2024-03-17T06:03:42;100062.52;;;4.98;81.22
41467;BME280;72625;53.700;19.958;2024-03-17T06:09:04;100061.75;;;4.98;80.67
41467;BME280;72625;53.700;19.958;2024-03-17T06:20:46;100071.23;;;5.11;79.79
41467;BME280;72625;53.700;19.958;2024-03-17T06:26:20;100072.29;;;5.13;79.50
41467;BME280;72625;53.700;19.958;2024-03-17T06:31:40;100077.63;;;5.17;79.63
41467;BME280;72625;53.700;19.958;2024-03-17T06:42:47;100080.08;;;5.42;79.43
41467;BME280;72625;53.700;19.958;2024-03-17T06:53:32;100078.21;;;5.59;78.97
41467;BME280;72625;53.700;19.958;2024-03-17T06:58:38;100079.16;;;5.58;78.95
41467;BME280;72625;53.700;19.958;2024-03-17T07:04:06;100078.40;;;5.57;79.01
41467;BME280;72625;53.700;19.958;2024-03-17T07:09:13;100082.69;;;5.61;79.16
41467;BME280;72625;53.700;19.958;2024-03-17T07:14:21;100084.23;;;5.70;79.07
41467;BME280;72625;53.700;19.958;2024-03-17T07:19:24;100084.15;;;5.81;78.83
41467;BME280;72625;53.700;19.958;2024-03-17T07:24:38;100089.42;;;5.87;78.71
41467;BME280;72625;53.700;19.958;2024-03-17T07:35:03;100101.77;;;5.80;78.48
41467;BME280;72625;53.700;19.958;2024-03-17T07:40:15;100106.13;;;5.85;78.67
41467;BME280;72625;53.700;19.958;2024-03-17T07:51:05;100114.60;;;5.89;78.82
41467;BME280;72625;53.700;19.958;2024-03-17T07:56:28;100117.41;;;5.92;78.63
41467;BME280;72625;53.700;19.958;2024-03-17T08:01:34;100127.11;;;5.81;78.97
41467;BME280;72625;53.700;19.958;2024-03-17T08:06:56;100130.85;;;5.72;79.31
41467;BME280;72625;53.700;19.958;2024-03-17T08:12:18;100136.34;;;5.74;79.55
41467;BME280;72625;53.700;19.958;2024-03-17T08:17:28;100142.02;;;5.68;79.85
41467;BME280;72625;53.700;19.958;2024-03-17T08:22:57;100142.13;;;5.79;80.10
41467;BME280;72625;53.700;19.958;2024-03-17T08:28:13;100147.73;;;5.85;80.12
41467;BME280;72625;53.700;19.958;2024-03-17T08:33:22;100147.65;;;5.86;80.32
41467;BME280;72625;53.700;19.958;2024-03-17T08:38:29;100149.86;;;5.85;80.70
41467;BME280;72625;53.700;19.958;2024-03-17T08:43:38;100178.15;;;5.52;81.25
41467;BME280;72625;53.700;19.958;2024-03-17T08:48:50;100191.65;;;5.02;81.46
41467;BME280;72625;53.700;19.958;2024-03-17T08:54:04;100194.55;;;4.98;81.70
41467;BME280;72625;53.700;19.958;2024-03-17T08:59:19;100208.64;;;5.16;81.15
41467;BME280;72625;53.700;19.958;2024-03-17T09:04:41;100212.98;;;5.26;80.85
41467;BME280;72625;53.700;19.958;2024-03-17T09:09:46;100222.67;;;5.09;81.25
41467;BME280;72625;53.700;19.958;2024-03-17T09:14:51;100229.69;;;4.83;81.67
41467;BME280;72625;53.700;19.958;2024-03-17T09:20:01;100239.05;;;5.00;80.86
41467;BME280;72625;53.700;19.958;2024-03-17T09:25:23;100245.52;;;4.96;80.12
41467;BME280;72625;53.700;19.958;2024-03-17T09:30:33;100256.89;;;5.00;80.41
41467;BME280;72625;53.700;19.958;2024-03-17T09:35:35;100256.95;;;5.01;80.03
41467;BME280;72625;53.700;19.958;2024-03-17T09:40:45;100267.79;;;5.08;79.71
41467;BME280;72625;53.700;19.958;2024-03-17T09:45:59;100276.42;;;5.06;78.34
41467;BME280;72625;53.700;19.958;2024-03-17T09:51:11;100274.71;;;5.15;77.81
41467;BME280;72625;53.700;19.958;2024-03-17T09:56:40;100281.69;;;5.04;76.90
41467;BME280;72625;53.700;19.958;2024-03-17T10:01:45;100294.10;;;4.79;77.60
41467;BME280;72625;53.700;19.958;2024-03-17T10:07:14;100298.45;;;4.83;77.65
41467;BME280;72625;53.700;19.958;2024-03-17T10:12:51;100306.77;;;5.13;77.53
41467;BME280;72625;53.700;19.958;2024-03-17T10:17:54;100315.61;;;5.04;74.06
41467;BME280;72625;53.700;19.958;2024-03-17T10:34:03;100320.71;;;4.99;71.84
41467;BME280;72625;53.700;19.958;2024-03-17T10:39:31;100324.42;;;5.11;71.21
41467;BME280;72625;53.700;19.958;2024-03-17T10:44:36;100336.73;;;5.09;71.42
41467;BME280;72625;53.700;19.958;2024-03-17T10:49:50;100351.22;;;5.02;73.05
41467;BME280;72625;53.700;19.958;2024-03-17T10:54:55;100358.61;;;5.34;73.08
41467;BME280;72625;53.700;19.958;2024-03-17T11:00:09;100362.52;;;5.17;72.19
41467;BME280;72625;53.700;19.958;2024-03-17T11:10:29;100363.27;;;4.59;70.10
41467;BME280;72625;53.700;19.958;2024-03-17T11:15:48;100368.98;;;4.49;70.91
41467;BME280;72625;53.700;19.958;2024-03-17T11:21:26;100371.29;;;4.86;71.59
41467;BME280;72625;53.700;19.958;2024-03-17T11:26:51;100374.35;;;4.93;69.11
41467;BME280;72625;53.700;19.958;2024-03-17T11:32:42;100377.87;;;4.84;67.50
41467;BME280;72625;53.700;19.958;2024-03-17T11:37:41;100393.95;;;4.56;68.73
41467;BME280;72625;53.700;19.958;2024-03-17T11:43:03;100399.23;;;4.57;68.69
41467;BME280;72625;53.700;19.958;2024-03-17T11:48:21;100398.80;;;4.71;68.52
41467;BME280;72625;53.700;19.958;2024-03-17T11:53:28;100397.42;;;4.74;68.15
41467;BME280;72625;53.700;19.958;2024-03-17T11:58:31;100397.79;;;4.67;68.37
41467;BME280;72625;53.700;19.958;2024-03-17T12:03:35;100395.06;;;4.75;68.27
41467;BME280;72625;53.700;19.958;2024-03-17T12:08:40;100401.01;;;4.81;68.30
41467;BME280;72625;53.700;19.958;2024-03-17T12:14:03;100404.33;;;4.63;67.58
41467;BME280;72625;53.700;19.958;2024-03-17T12:19:16;100411.56;;;4.72;68.06
41467;BME280;72625;53.700;19.958;2024-03-17T12:24:20;100403.48;;;4.82;66.93
41467;BME280;72625;53.700;19.958;2024-03-17T12:29:33;100402.32;;;4.82;64.80
41467;BME280;72625;53.700;19.958;2024-03-17T12:34:39;100399.12;;;4.97;65.41
41467;BME280;72625;53.700;19.958;2024-03-17T12:39:50;100408.64;;;5.12;64.45
41467;BME280;72625;53.700;19.958;2024-03-17T12:45:14;100403.92;;;4.83;63.87
41467;BME280;72625;53.700;19.958;2024-03-17T12:50:33;100414.38;;;4.94;65.52
41467;BME280;72625;53.700;19.958;2024-03-17T12:55:53;100419.66;;;4.81;65.16
41467;BME280;72625;53.700;19.958;2024-03-17T13:01:17;100407.22;;;4.63;65.54
41467;BME280;72625;53.700;19.958;2024-03-17T13:06:31;100406.52;;;4.63;66.32
41467;BME280;72625;53.700;19.958;2024-03-17T13:11:51;100407.34;;;4.89;67.07
41467;BME280;72625;53.700;19.958;2024-03-17T13:16:53;100410.05;;;4.77;67.12
41467;BME280;72625;53.700;19.958;2024-03-17T13:21:56;100416.40;;;4.59;66.71
41467;BME280;72625;53.700;19.958;2024-03-17T13:27:07;100418.25;;;4.73;66.64
41467;BME280;72625;53.700;19.958;2024-03-17T13:32:09;100423.48;;;4.77;66.61
41467;BME280;72625;53.700;19.958;2024-03-17T13:37:14;100426.48;;;4.54;66.82
41467;BME280;72625;53.700;19.958;2024-03-17T13:42:36;100451.88;;;4.09;68.19
41467;BME280;72625;53.700;19.958;2024-03-17T13:47:59;100457.91;;;3.54;69.35
41467;BME280;72625;53.700;19.958;2024-03-17T13:53:22;100457.15;;;3.18;71.35
41467;BME280;72625;53.700;19.958;2024-03-17T13:58:24;100463.26;;;3.39;71.08
41467;BME280;72625;53.700;19.958;2024-03-17T14:03:30;100463.97;;;3.39;71.68
41467;BME280;72625;53.700;19.958;2024-03-17T14:08:44;100465.08;;;3.48;71.30
41467;BME280;72625;53.700;19.958;2024-03-17T14:13:56;100461.20;;;3.53;70.74
41467;BME280;72625;53.700;19.958;2024-03-17T14:19:01;100458.61;;;3.43;70.55
41467;BME280;72625;53.700;19.958;2024-03-17T14:24:32;100462.98;;;3.43;70.63
41467;BME280;72625;53.700;19.958;2024-03-17T14:29:55;100458.52;;;3.39;70.92
41467;BME280;72625;53.700;19.958;2024-03-17T14:35:38;100456.63;;;3.23;71.35
41467;BME280;72625;53.700;19.958;2024-03-17T14:40:43;100459.73;;;3.18;72.04
41467;BME280;72625;53.700;19.958;2024-03-17T14:45:55;100463.48;;;3.10;72.76
41467;BME280;72625;53.700;19.958;2024-03-17T14:51:09;100460.83;;;2.91;74.03
41467;BME280;72625;53.700;19.958;2024-03-17T14:56:52;100465.85;;;2.78;73.85
41467;BME280;72625;53.700;19.958;2024-03-17T15:02:16;100469.71;;;2.57;73.85
41467;BME280;72625;53.700;19.958;2024-03-17T15:07:48;100474.88;;;2.54;73.47
41467;BME280;72625;53.700;19.958;2024-03-17T15:13:32;100477.27;;;2.49;73.99
41467;BME280;72625;53.700;19.958;2024-03-17T15:18:54;100476.46;;;2.51;74.43
41467;BME280;72625;53.700;19.958;2024-03-17T15:24:29;100473.66;;;2.52;74.56
41467;BME280;72625;53.700;19.958;2024-03-17T15:29:42;100473.39;;;2.40;74.96
41467;BME280;72625;53.700;19.958;2024-03-17T15:40:17;100469.64;;;2.23;75.75
41467;BME280;72625;53.700;19.958;2024-03-17T15:45:22;100471.48;;;2.26;76.06
41467;BME280;72625;53.700;19.958;2024-03-17T15:50:29;100471.45;;;2.31;76.24
41467;BME280;72625;53.700;19.958;2024-03-17T16:07:46;100480.56;;;1.86;78.77
41467;BME280;72625;53.700;19.958;2024-03-17T16:13:09;100479.30;;;1.78;79.11
41467;BME280;72625;53.700;19.958;2024-03-17T16:18:24;100470.13;;;1.68;79.72
41467;BME280;72625;53.700;19.958;2024-03-17T16:29:22;100467.85;;;1.61;80.44
41467;BME280;72625;53.700;19.958;2024-03-17T16:40:04;100471.43;;;1.43;82.57
41467;BME280;72625;53.700;19.958;2024-03-17T16:45:45;100471.77;;;1.37;82.77
41467;BME280;72625;53.700;19.958;2024-03-17T16:50:56;100476.39;;;1.29;83.92
41467;BME280;72625;53.700;19.958;2024-03-17T16:55:59;100481.34;;;1.32;83.91
41467;BME280;72625;53.700;19.958;2024-03-17T17:01:13;100485.08;;;1.29;84.61
41467;BME280;72625;53.700;19.958;2024-03-17T17:06:17;100490.29;;;1.27;84.19
41467;BME280;72625;53.700;19.958;2024-03-17T17:22:32;100492.52;;;1.09;85.45
41467;BME280;72625;53.700;19.958;2024-03-17T17:27:54;100497.40;;;1.09;85.80
41467;BME280;72625;53.700;19.958;2024-03-17T17:33:17;100491.59;;;1.07;86.28
41467;BME280;72625;53.700;19.958;2024-03-17T17:38:23;100486.80;;;1.05;86.14
41467;BME280;72625;53.700;19.958;2024-03-17T17:44:30;100486.27;;;1.05;86.56
41467;BME280;72625;53.700;19.958;2024-03-17T17:49:35;100483.60;;;1.09;86.84
41467;BME280;72625;53.700;19.958;2024-03-17T17:54:45;100478.68;;;1.17;86.55
41467;BME280;72625;53.700;19.958;2024-03-17T18:00:11;100473.89;;;1.17;86.35
41467;BME280;72625;53.700;19.958;2024-03-17T18:05:16;100480.77;;;1.15;86.49
41467;BME280;72625;53.700;19.958;2024-03-17T18:10:48;100474.82;;;1.15;86.19
41467;BME280;72625;53.700;19.958;2024-03-17T18:16:11;100483.29;;;1.07;86.76
41467;BME280;72625;53.700;19.958;2024-03-17T18:22:05;100481.30;;;1.05;87.57
41467;BME280;72625;53.700;19.958;2024-03-17T18:27:27;100475.59;;;0.99;87.93
41467;BME280;72625;53.700;19.958;2024-03-17T18:32:33;100479.98;;;1.05;87.61
41467;BME280;72625;53.700;19.958;2024-03-17T18:38:05;100481.38;;;1.03;87.84
41467;BME280;72625;53.700;19.958;2024-03-17T19:00:51;100476.71;;;1.08;88.87
41467;BME280;72625;53.700;19.958;2024-03-17T19:12:27;100472.13;;;1.09;88.87
41467;BME280;72625;53.700;19.958;2024-03-17T19:17:46;100478.31;;;1.14;88.79
41467;BME280;72625;53.700;19.958;2024-03-17T19:23:21;100476.84;;;1.17;88.55
41467;BME280;72625;53.700;19.958;2024-03-17T19:41:14;100471.90;;;1.10;89.34
41467;BME280;72625;53.700;19.958;2024-03-17T19:52:13;100475.55;;;1.07;89.56
41467;BME280;72625;53.700;19.958;2024-03-17T19:57:18;100475.18;;;1.04;89.94
41467;BME280;72625;53.700;19.958;2024-03-17T20:02:32;100471.45;;;1.06;89.81
41467;BME280;72625;53.700;19.958;2024-03-17T20:08:21;100472.84;;;1.04;89.95
41467;BME280;72625;53.700;19.958;2024-03-17T20:19:25;100460.55;;;1.00;90.46
41467;BME280;72625;53.700;19.958;2024-03-17T20:24:30;100463.11;;;0.98;90.50
41467;BME280;72625;53.700;19.958;2024-03-17T20:30:13;100463.50;;;0.95;90.75
41467;BME280;72625;53.700;19.958;2024-03-17T20:35:35;100461.64;;;0.94;90.89
41467;BME280;72625;53.700;19.958;2024-03-17T20:41:22;100451.25;;;0.99;91.05
41467;BME280;72625;53.700;19.958;2024-03-17T20:46:39;100445.52;;;0.97;91.20
41467;BME280;72625;53.700;19.958;2024-03-17T20:52:09;100437.86;;;0.94;91.25
41467;BME280;72625;53.700;19.958;2024-03-17T21:03:09;100434.67;;;0.96;91.18
41467;BME280;72625;53.700;19.958;2024-03-17T21:14:21;100417.33;;;1.10;90.61
41467;BME280;72625;53.700;19.958;2024-03-17T21:19:47;100412.30;;;1.09;90.57
41467;BME280;72625;53.700;19.958;2024-03-17T22:00:22;100395.48;;;1.11;90.20
41467;BME280;72625;53.700;19.958;2024-03-17T22:06:10;100390.67;;;1.14;89.92
41467;BME280;72625;53.700;19.958;2024-03-17T22:11:44;100386.67;;;1.18;89.62
41467;BME280;72625;53.700;19.958;2024-03-17T22:23:09;100376.77;;;1.16;89.84
41467;BME280;72625;53.700;19.958;2024-03-17T22:28:51;100379.23;;;1.16;89.93
41467;BME280;72625;53.700;19.958;2024-03-17T22:33:56;100374.58;;;1.21;90.09
41467;BME280;72625;53.700;19.958;2024-03-17T22:38:59;100373.20;;;1.18;90.25
41467;BME280;72625;53.700;19.958;2024-03-17T22:50:37;100363.80;;;1.21;90.39
41467;BME280;72625;53.700;19.958;2024-03-17T22:55:55;100358.52;;;1.22;90.28
41467;BME280;72625;53.700;19.958;2024-03-17T23:00:57;100355.20;;;1.22;90.14
41467;BME280;72625;53.700;19.958;2024-03-17T23:06:15;100353.96;;;1.22;90.11
41467;BME280;72625;53.700;19.958;2024-03-17T23:22:52;100345.28;;;1.19;90.62
41467;BME280;72625;53.700;19.958;2024-03-17T23:28:39;100346.02;;;1.15;90.81
41467;BME280;72625;53.700;19.958;2024-03-17T23:39:41;100335.26;;;1.12;90.85
41467;BME280;72625;53.700;19.958;2024-03-17T23:44:42;100332.08;;;1.13;91.07
